sensor_id;sensor_type;location;lat;lon;timestamp;P1;durP1;ratioP1;P2;durP2;ratioP2
43813;SDS011;29669;55.706;37.656;2022-08-01T00:01:02;9.02;;;3.90;;
43813;SDS011;29669;55.706;37.656;2022-08-01T00:04:23;13.48;;;3.40;;
43813;SDS011;29669;55.706;37.656;2022-08-01T00:07:45;8.65;;;3.90;;
43813;SDS011;29669;55.706;37.656;2022-08-01T00:11:05;7.78;;;4.07;;
43813;SDS011;29669;55.706;37.656;2022-08-01T00:14:27;11.35;;;4.18;;
43813;SDS011;29669;55.706;37.656;2022-08-01T00:17:48;14.80;;;4.65;;
43813;SDS011;29669;55.706;37.656;2022-08-01T00:21:09;10.70;;;4.60;;
43813;SDS011;29669;55.706;37.656;2022-08-01T00:24:33;10.05;;;4.53;;
43813;SDS011;29669;55.706;37.656;2022-08-01T00:27:55;12.73;;;4.15;;
43813;SDS011;29669;55.706;37.656;2022-08-01T00:31:21;11.10;;;4.57;;
43813;SDS011;29669;55.706;37.656;2022-08-01T00:34:45;5.32;;;3.20;;
43813;SDS011;29669;55.706;37.656;2022-08-01T00:38:07;10.77;;;3.25;;
43813;SDS011;29669;55.706;37.656;2022-08-01T00:41:35;8.68;;;3.67;;
43813;SDS011;29669;55.706;37.656;2022-08-01T00:45:02;4.07;;;3.03;;
43813;SDS011;29669;55.706;37.656;2022-08-01T00:48:25;6.43;;;3.72;;
43813;SDS011;29669;55.706;37.656;2022-08-01T00:51:48;7.00;;;3.67;;
43813;SDS011;29669;55.706;37.656;2022-08-01T00:55:12;7.05;;;3.67;;
43813;SDS011;29669;55.706;37.656;2022-08-01T00:58:39;6.22;;;3.53;;
43813;SDS011;29669;55.706;37.656;2022-08-01T01:02:03;6.20;;;3.25;;
43813;SDS011;29669;55.706;37.656;2022-08-01T01:05:30;6.13;;;4.20;;
43813;SDS011;29669;55.706;37.656;2022-08-01T01:12:34;8.23;;;3.50;;
43813;SDS011;29669;55.706;37.656;2022-08-01T01:16:04;10.35;;;4.80;;
43813;SDS011;29669;55.706;37.656;2022-08-01T01:19:39;10.77;;;3.80;;
43813;SDS011;29669;55.706;37.656;2022-08-01T01:23:21;10.80;;;4.20;;
43813;SDS011;29669;55.706;37.656;2022-08-01T01:30:56;12.02;;;4.22;;
43813;SDS011;29669;55.706;37.656;2022-08-01T01:34:22;12.60;;;3.95;;
43813;SDS011;29669;55.706;37.656;2022-08-01T01:37:44;14.95;;;3.80;;
43813;SDS011;29669;55.706;37.656;2022-08-01T01:41:08;6.25;;;3.47;;
43813;SDS011;29669;55.706;37.656;2022-08-01T01:44:32;10.90;;;3.88;;
43813;SDS011;29669;55.706;37.656;2022-08-01T01:47:55;13.57;;;4.25;;
43813;SDS011;29669;55.706;37.656;2022-08-01T01:51:21;8.18;;;2.83;;
43813;SDS011;29669;55.706;37.656;2022-08-01T01:54:48;9.98;;;3.90;;
43813;SDS011;29669;55.706;37.656;2022-08-01T01:58:14;53.88;;;9.00;;
43813;SDS011;29669;55.706;37.656;2022-08-01T02:01:37;11.48;;;3.55;;
43813;SDS011;29669;55.706;37.656;2022-08-01T02:05:14;13.27;;;4.75;;
43813;SDS011;29669;55.706;37.656;2022-08-01T02:08:35;5.72;;;2.90;;
43813;SDS011;29669;55.706;37.656;2022-08-01T02:11:58;6.57;;;3.40;;
43813;SDS011;29669;55.706;37.656;2022-08-01T02:15:25;5.00;;;3.08;;
43813;SDS011;29669;55.706;37.656;2022-08-01T02:19:05;7.10;;;3.72;;
43813;SDS011;29669;55.706;37.656;2022-08-01T02:23:12;6.65;;;3.25;;
43813;SDS011;29669;55.706;37.656;2022-08-01T02:26:22;8.52;;;3.28;;
43813;SDS011;29669;55.706;37.656;2022-08-01T02:29:46;12.75;;;3.88;;
43813;SDS011;29669;55.706;37.656;2022-08-01T02:33:16;8.27;;;3.88;;
43813;SDS011;29669;55.706;37.656;2022-08-01T02:37:19;6.18;;;3.45;;
43813;SDS011;29669;55.706;37.656;2022-08-01T02:40:43;6.85;;;3.67;;
43813;SDS011;29669;55.706;37.656;2022-08-01T02:44:10;11.38;;;5.10;;
43813;SDS011;29669;55.706;37.656;2022-08-01T02:47:42;8.80;;;4.13;;
43813;SDS011;29669;55.706;37.656;2022-08-01T02:51:08;12.15;;;4.25;;
43813;SDS011;29669;55.706;37.656;2022-08-01T02:54:37;12.63;;;4.18;;
43813;SDS011;29669;55.706;37.656;2022-08-01T02:57:55;8.15;;;4.07;;
43813;SDS011;29669;55.706;37.656;2022-08-01T03:01:23;5.85;;;3.63;;
43813;SDS011;29669;55.706;37.656;2022-08-01T03:04:44;9.30;;;3.78;;
43813;SDS011;29669;55.706;37.656;2022-08-01T03:08:09;8.40;;;4.28;;
43813;SDS011;29669;55.706;37.656;2022-08-01T03:11:32;7.03;;;3.67;;
43813;SDS011;29669;55.706;37.656;2022-08-01T03:14:55;10.18;;;4.30;;
43813;SDS011;29669;55.706;37.656;2022-08-01T03:18:21;10.82;;;5.95;;
43813;SDS011;29669;55.706;37.656;2022-08-01T03:21:45;9.48;;;4.05;;
43813;SDS011;29669;55.706;37.656;2022-08-01T03:25:12;5.28;;;3.78;;
43813;SDS011;29669;55.706;37.656;2022-08-01T03:28:40;9.52;;;4.20;;
43813;SDS011;29669;55.706;37.656;2022-08-01T03:32:05;9.43;;;3.63;;
43813;SDS011;29669;55.706;37.656;2022-08-01T03:35:39;8.07;;;4.00;;
43813;SDS011;29669;55.706;37.656;2022-08-01T03:39:14;7.90;;;4.00;;
43813;SDS011;29669;55.706;37.656;2022-08-01T03:42:44;10.02;;;3.75;;
43813;SDS011;29669;55.706;37.656;2022-08-01T03:46:09;8.50;;;3.45;;
43813;SDS011;29669;55.706;37.656;2022-08-01T03:49:35;15.10;;;5.55;;
43813;SDS011;29669;55.706;37.656;2022-08-01T03:53:02;12.85;;;4.85;;
43813;SDS011;29669;55.706;37.656;2022-08-01T03:56:33;14.38;;;4.57;;
43813;SDS011;29669;55.706;37.656;2022-08-01T04:00:00;11.73;;;4.40;;
43813;SDS011;29669;55.706;37.656;2022-08-01T04:03:23;8.35;;;4.00;;
43813;SDS011;29669;55.706;37.656;2022-08-01T04:06:53;9.90;;;4.43;;
43813;SDS011;29669;55.706;37.656;2022-08-01T04:10:23;5.75;;;3.65;;
43813;SDS011;29669;55.706;37.656;2022-08-01T04:13:44;6.68;;;3.53;;
43813;SDS011;29669;55.706;37.656;2022-08-01T04:17:05;15.68;;;4.53;;
43813;SDS011;29669;55.706;37.656;2022-08-01T04:20:26;12.55;;;4.97;;
43813;SDS011;29669;55.706;37.656;2022-08-01T04:23:41;13.05;;;3.90;;
43813;SDS011;29669;55.706;37.656;2022-08-01T04:27:08;19.90;;;4.55;;
43813;SDS011;29669;55.706;37.656;2022-08-01T04:30:55;12.30;;;3.88;;
43813;SDS011;29669;55.706;37.656;2022-08-01T04:34:21;7.40;;;4.35;;
43813;SDS011;29669;55.706;37.656;2022-08-01T04:37:45;7.72;;;4.10;;
43813;SDS011;29669;55.706;37.656;2022-08-01T04:41:08;14.45;;;5.43;;
43813;SDS011;29669;55.706;37.656;2022-08-01T04:44:35;9.75;;;4.50;;
43813;SDS011;29669;55.706;37.656;2022-08-01T04:47:57;8.85;;;5.13;;
43813;SDS011;29669;55.706;37.656;2022-08-01T04:51:25;19.92;;;6.75;;
43813;SDS011;29669;55.706;37.656;2022-08-01T04:54:52;11.68;;;4.65;;
43813;SDS011;29669;55.706;37.656;2022-08-01T04:58:21;13.00;;;5.03;;
43813;SDS011;29669;55.706;37.656;2022-08-01T05:01:46;8.38;;;4.22;;
43813;SDS011;29669;55.706;37.656;2022-08-01T05:05:08;12.65;;;4.05;;
43813;SDS011;29669;55.706;37.656;2022-08-01T05:08:33;7.20;;;3.97;;
43813;SDS011;29669;55.706;37.656;2022-08-01T05:12:04;12.60;;;3.85;;
43813;SDS011;29669;55.706;37.656;2022-08-01T05:15:30;8.95;;;4.32;;
43813;SDS011;29669;55.706;37.656;2022-08-01T05:18:54;11.40;;;4.70;;
43813;SDS011;29669;55.706;37.656;2022-08-01T05:22:16;12.13;;;4.20;;
43813;SDS011;29669;55.706;37.656;2022-08-01T05:25:40;6.88;;;4.75;;
43813;SDS011;29669;55.706;37.656;2022-08-01T05:29:06;9.05;;;4.10;;
43813;SDS011;29669;55.706;37.656;2022-08-01T05:32:28;7.88;;;4.05;;
43813;SDS011;29669;55.706;37.656;2022-08-01T05:35:49;10.18;;;3.50;;
43813;SDS011;29669;55.706;37.656;2022-08-01T05:39:10;6.88;;;3.53;;
43813;SDS011;29669;55.706;37.656;2022-08-01T05:42:33;12.52;;;3.95;;
43813;SDS011;29669;55.706;37.656;2022-08-01T05:45:57;9.70;;;3.55;;
43813;SDS011;29669;55.706;37.656;2022-08-01T05:49:20;5.55;;;3.15;;
43813;SDS011;29669;55.706;37.656;2022-08-01T05:52:44;6.80;;;3.30;;
43813;SDS011;29669;55.706;37.656;2022-08-01T05:56:07;5.22;;;2.65;;
43813;SDS011;29669;55.706;37.656;2022-08-01T05:59:21;6.68;;;3.22;;
43813;SDS011;29669;55.706;37.656;2022-08-01T06:02:43;6.68;;;3.22;;
43813;SDS011;29669;55.706;37.656;2022-08-01T06:06:05;6.82;;;2.60;;
43813;SDS011;29669;55.706;37.656;2022-08-01T06:09:33;9.40;;;3.38;;
43813;SDS011;29669;55.706;37.656;2022-08-01T06:12:56;10.45;;;3.90;;
43813;SDS011;29669;55.706;37.656;2022-08-01T06:16:17;8.60;;;3.53;;
43813;SDS011;29669;55.706;37.656;2022-08-01T06:19:40;13.52;;;3.35;;
43813;SDS011;29669;55.706;37.656;2022-08-01T06:23:04;11.95;;;3.92;;
43813;SDS011;29669;55.706;37.656;2022-08-01T06:26:37;6.78;;;2.95;;
43813;SDS011;29669;55.706;37.656;2022-08-01T06:29:59;5.25;;;2.65;;
43813;SDS011;29669;55.706;37.656;2022-08-01T06:33:21;10.50;;;3.30;;
43813;SDS011;29669;55.706;37.656;2022-08-01T06:36:45;4.82;;;2.50;;
43813;SDS011;29669;55.706;37.656;2022-08-01T06:40:09;6.32;;;2.63;;
43813;SDS011;29669;55.706;37.656;2022-08-01T06:43:35;4.22;;;2.20;;
43813;SDS011;29669;55.706;37.656;2022-08-01T06:46:56;18.48;;;3.58;;
43813;SDS011;29669;55.706;37.656;2022-08-01T06:50:17;4.45;;;2.53;;
43813;SDS011;29669;55.706;37.656;2022-08-01T06:53:39;6.15;;;2.63;;
43813;SDS011;29669;55.706;37.656;2022-08-01T06:57:00;7.22;;;2.70;;
43813;SDS011;29669;55.706;37.656;2022-08-01T07:00:27;6.47;;;2.65;;
43813;SDS011;29669;55.706;37.656;2022-08-01T07:03:49;5.35;;;2.95;;
43813;SDS011;29669;55.706;37.656;2022-08-01T07:07:13;2.95;;;2.30;;
43813;SDS011;29669;55.706;37.656;2022-08-01T07:10:37;2.00;;;1.90;;
43813;SDS011;29669;55.706;37.656;2022-08-01T07:14:00;2.15;;;1.63;;
43813;SDS011;29669;55.706;37.656;2022-08-01T07:17:25;3.42;;;2.15;;
43813;SDS011;29669;55.706;37.656;2022-08-01T07:20:47;3.70;;;1.90;;
43813;SDS011;29669;55.706;37.656;2022-08-01T07:24:08;3.05;;;1.92;;
43813;SDS011;29669;55.706;37.656;2022-08-01T07:27:34;3.15;;;2.42;;
43813;SDS011;29669;55.706;37.656;2022-08-01T07:30:56;5.55;;;2.38;;
43813;SDS011;29669;55.706;37.656;2022-08-01T07:34:17;9.60;;;3.22;;
43813;SDS011;29669;55.706;37.656;2022-08-01T07:37:41;4.57;;;3.03;;
43813;SDS011;29669;55.706;37.656;2022-08-01T07:41:05;5.40;;;2.55;;
43813;SDS011;29669;55.706;37.656;2022-08-01T07:44:26;5.60;;;2.88;;
43813;SDS011;29669;55.706;37.656;2022-08-01T07:47:50;6.82;;;2.72;;
43813;SDS011;29669;55.706;37.656;2022-08-01T07:51:15;10.60;;;3.20;;
43813;SDS011;29669;55.706;37.656;2022-08-01T07:54:36;10.05;;;3.00;;
43813;SDS011;29669;55.706;37.656;2022-08-01T07:57:58;8.57;;;2.90;;
43813;SDS011;29669;55.706;37.656;2022-08-01T08:01:19;9.15;;;2.70;;
43813;SDS011;29669;55.706;37.656;2022-08-01T08:04:40;2.83;;;2.05;;
43813;SDS011;29669;55.706;37.656;2022-08-01T08:08:05;2.20;;;2.00;;
43813;SDS011;29669;55.706;37.656;2022-08-01T08:11:29;9.07;;;3.20;;
43813;SDS011;29669;55.706;37.656;2022-08-01T08:14:57;5.80;;;3.05;;
43813;SDS011;29669;55.706;37.656;2022-08-01T08:18:19;5.30;;;2.67;;
43813;SDS011;29669;55.706;37.656;2022-08-01T08:21:43;2.63;;;2.20;;
43813;SDS011;29669;55.706;37.656;2022-08-01T08:25:10;7.32;;;3.25;;
43813;SDS011;29669;55.706;37.656;2022-08-01T08:28:35;3.03;;;2.30;;
43813;SDS011;29669;55.706;37.656;2022-08-01T08:32:01;3.50;;;2.20;;
43813;SDS011;29669;55.706;37.656;2022-08-01T08:35:26;2.80;;;2.40;;
43813;SDS011;29669;55.706;37.656;2022-08-01T08:39:01;4.35;;;3.00;;
43813;SDS011;29669;55.706;37.656;2022-08-01T08:42:23;8.32;;;3.22;;
43813;SDS011;29669;55.706;37.656;2022-08-01T08:45:44;5.35;;;2.45;;
43813;SDS011;29669;55.706;37.656;2022-08-01T08:49:13;6.40;;;3.42;;
43813;SDS011;29669;55.706;37.656;2022-08-01T08:52:46;10.15;;;2.58;;
43813;SDS011;29669;55.706;37.656;2022-08-01T08:56:08;4.38;;;2.60;;
43813;SDS011;29669;55.706;37.656;2022-08-01T08:59:34;3.97;;;2.95;;
43813;SDS011;29669;55.706;37.656;2022-08-01T09:02:58;6.07;;;2.53;;
43813;SDS011;29669;55.706;37.656;2022-08-01T09:06:20;6.63;;;3.10;;
43813;SDS011;29669;55.706;37.656;2022-08-01T09:09:46;2.67;;;2.30;;
43813;SDS011;29669;55.706;37.656;2022-08-01T09:13:13;4.03;;;2.30;;
43813;SDS011;29669;55.706;37.656;2022-08-01T09:16:35;2.78;;;2.25;;
43813;SDS011;29669;55.706;37.656;2022-08-01T09:19:58;4.97;;;2.35;;
43813;SDS011;29669;55.706;37.656;2022-08-01T09:23:34;4.38;;;2.22;;
43813;SDS011;29669;55.706;37.656;2022-08-01T09:27:00;5.95;;;2.88;;
43813;SDS011;29669;55.706;37.656;2022-08-01T09:30:37;5.63;;;2.83;;
43813;SDS011;29669;55.706;37.656;2022-08-01T09:34:00;4.30;;;3.13;;
43813;SDS011;29669;55.706;37.656;2022-08-01T09:37:31;5.20;;;2.97;;
43813;SDS011;29669;55.706;37.656;2022-08-01T09:40:56;3.45;;;2.22;;
43813;SDS011;29669;55.706;37.656;2022-08-01T09:44:36;4.60;;;2.60;;
43813;SDS011;29669;55.706;37.656;2022-08-01T09:48:08;7.95;;;3.00;;
43813;SDS011;29669;55.706;37.656;2022-08-01T09:51:36;5.75;;;2.38;;
43813;SDS011;29669;55.706;37.656;2022-08-01T09:55:07;4.30;;;2.40;;
43813;SDS011;29669;55.706;37.656;2022-08-01T09:58:24;7.35;;;2.58;;
43813;SDS011;29669;55.706;37.656;2022-08-01T10:01:47;3.30;;;2.38;;
43813;SDS011;29669;55.706;37.656;2022-08-01T10:05:09;7.40;;;3.10;;
43813;SDS011;29669;55.706;37.656;2022-08-01T10:08:37;6.55;;;2.80;;
43813;SDS011;29669;55.706;37.656;2022-08-01T10:12:07;2.70;;;2.10;;
43813;SDS011;29669;55.706;37.656;2022-08-01T10:15:32;6.85;;;3.90;;
43813;SDS011;29669;55.706;37.656;2022-08-01T10:18:54;5.72;;;2.22;;
43813;SDS011;29669;55.706;37.656;2022-08-01T10:22:17;7.38;;;2.70;;
43813;SDS011;29669;55.706;37.656;2022-08-01T10:25:41;4.03;;;2.70;;
43813;SDS011;29669;55.706;37.656;2022-08-01T10:29:05;4.32;;;2.60;;
43813;SDS011;29669;55.706;37.656;2022-08-01T10:32:30;7.30;;;3.25;;
43813;SDS011;29669;55.706;37.656;2022-08-01T10:35:57;3.85;;;2.88;;
43813;SDS011;29669;55.706;37.656;2022-08-01T10:39:21;6.78;;;3.47;;
43813;SDS011;29669;55.706;37.656;2022-08-01T10:42:44;7.25;;;3.17;;
43813;SDS011;29669;55.706;37.656;2022-08-01T10:46:06;10.50;;;2.63;;
43813;SDS011;29669;55.706;37.656;2022-08-01T10:49:29;6.60;;;2.72;;
43813;SDS011;29669;55.706;37.656;2022-08-01T10:56:39;6.47;;;2.65;;
43813;SDS011;29669;55.706;37.656;2022-08-01T11:00:04;6.07;;;2.30;;
43813;SDS011;29669;55.706;37.656;2022-08-01T11:03:37;3.10;;;2.70;;
43813;SDS011;29669;55.706;37.656;2022-08-01T11:07:06;4.60;;;2.50;;
43813;SDS011;29669;55.706;37.656;2022-08-01T11:21:03;6.78;;;3.08;;
43813;SDS011;29669;55.706;37.656;2022-08-01T11:31:42;8.25;;;2.88;;
43813;SDS011;29669;55.706;37.656;2022-08-01T11:35:05;6.53;;;2.35;;
43813;SDS011;29669;55.706;37.656;2022-08-01T11:38:26;5.80;;;2.50;;
43813;SDS011;29669;55.706;37.656;2022-08-01T11:41:51;3.92;;;2.70;;
43813;SDS011;29669;55.706;37.656;2022-08-01T11:45:14;4.75;;;2.58;;
43813;SDS011;29669;55.706;37.656;2022-08-01T11:48:35;7.40;;;2.85;;
43813;SDS011;29669;55.706;37.656;2022-08-01T11:52:06;3.10;;;2.60;;
43813;SDS011;29669;55.706;37.656;2022-08-01T11:55:27;2.83;;;2.55;;
43813;SDS011;29669;55.706;37.656;2022-08-01T11:58:49;6.20;;;2.65;;
43813;SDS011;29669;55.706;37.656;2022-08-01T12:05:43;4.93;;;2.63;;
43813;SDS011;29669;55.706;37.656;2022-08-01T12:09:18;6.43;;;4.38;;
43813;SDS011;29669;55.706;37.656;2022-08-01T12:12:45;4.15;;;2.30;;
43813;SDS011;29669;55.706;37.656;2022-08-01T12:16:07;4.43;;;2.40;;
43813;SDS011;29669;55.706;37.656;2022-08-01T12:19:36;5.22;;;2.80;;
43813;SDS011;29669;55.706;37.656;2022-08-01T12:23:00;5.07;;;2.47;;
43813;SDS011;29669;55.706;37.656;2022-08-01T12:26:39;4.15;;;3.00;;
43813;SDS011;29669;55.706;37.656;2022-08-01T12:30:06;3.70;;;3.00;;
43813;SDS011;29669;55.706;37.656;2022-08-01T12:33:32;5.05;;;2.35;;
43813;SDS011;29669;55.706;37.656;2022-08-01T12:36:54;5.65;;;2.38;;
43813;SDS011;29669;55.706;37.656;2022-08-01T12:40:19;7.32;;;5.78;;
43813;SDS011;29669;55.706;37.656;2022-08-01T12:44:02;11.23;;;3.03;;
43813;SDS011;29669;55.706;37.656;2022-08-01T12:47:23;8.18;;;3.08;;
43813;SDS011;29669;55.706;37.656;2022-08-01T12:50:49;7.07;;;3.15;;
43813;SDS011;29669;55.706;37.656;2022-08-01T12:54:12;3.40;;;2.10;;
43813;SDS011;29669;55.706;37.656;2022-08-01T12:57:34;5.25;;;2.28;;
43813;SDS011;29669;55.706;37.656;2022-08-01T13:01:05;5.15;;;2.22;;
43813;SDS011;29669;55.706;37.656;2022-08-01T13:04:48;4.53;;;2.80;;
43813;SDS011;29669;55.706;37.656;2022-08-01T13:08:11;4.57;;;2.90;;
43813;SDS011;29669;55.706;37.656;2022-08-01T13:11:49;4.57;;;2.58;;
43813;SDS011;29669;55.706;37.656;2022-08-01T13:15:17;3.00;;;2.50;;
43813;SDS011;29669;55.706;37.656;2022-08-01T13:18:39;6.70;;;2.75;;
43813;SDS011;29669;55.706;37.656;2022-08-01T13:22:01;6.95;;;2.67;;
43813;SDS011;29669;55.706;37.656;2022-08-01T13:25:25;7.32;;;2.50;;
43813;SDS011;29669;55.706;37.656;2022-08-01T13:28:46;5.43;;;2.15;;
43813;SDS011;29669;55.706;37.656;2022-08-01T13:32:20;6.28;;;2.83;;
43813;SDS011;29669;55.706;37.656;2022-08-01T13:35:37;4.70;;;2.20;;
43813;SDS011;29669;55.706;37.656;2022-08-01T13:39:00;6.78;;;2.67;;
43813;SDS011;29669;55.706;37.656;2022-08-01T13:42:42;6.35;;;2.65;;
43813;SDS011;29669;55.706;37.656;2022-08-01T13:46:03;6.72;;;2.60;;
43813;SDS011;29669;55.706;37.656;2022-08-01T13:49:24;6.30;;;3.05;;
43813;SDS011;29669;55.706;37.656;2022-08-01T13:52:47;6.60;;;3.08;;
43813;SDS011;29669;55.706;37.656;2022-08-01T13:56:08;4.38;;;2.60;;
43813;SDS011;29669;55.706;37.656;2022-08-01T13:59:31;6.25;;;2.65;;
43813;SDS011;29669;55.706;37.656;2022-08-01T14:02:53;4.00;;;2.92;;
43813;SDS011;29669;55.706;37.656;2022-08-01T14:06:14;5.72;;;2.60;;
43813;SDS011;29669;55.706;37.656;2022-08-01T14:09:36;4.75;;;2.60;;
43813;SDS011;29669;55.706;37.656;2022-08-01T14:13:03;3.47;;;2.20;;
43813;SDS011;29669;55.706;37.656;2022-08-01T14:16:24;2.70;;;2.10;;
43813;SDS011;29669;55.706;37.656;2022-08-01T14:19:46;2.78;;;1.90;;
43813;SDS011;29669;55.706;37.656;2022-08-01T14:23:07;6.03;;;2.25;;
43813;SDS011;29669;55.706;37.656;2022-08-01T14:26:31;8.05;;;2.75;;
43813;SDS011;29669;55.706;37.656;2022-08-01T14:29:53;10.02;;;2.53;;
43813;SDS011;29669;55.706;37.656;2022-08-01T14:33:14;12.00;;;3.67;;
43813;SDS011;29669;55.706;37.656;2022-08-01T14:36:35;5.53;;;2.63;;
43813;SDS011;29669;55.706;37.656;2022-08-01T14:39:59;7.20;;;2.30;;
43813;SDS011;29669;55.706;37.656;2022-08-01T14:43:23;8.02;;;2.90;;
43813;SDS011;29669;55.706;37.656;2022-08-01T14:46:47;5.53;;;2.67;;
43813;SDS011;29669;55.706;37.656;2022-08-01T14:50:04;8.00;;;2.30;;
43813;SDS011;29669;55.706;37.656;2022-08-01T14:53:27;8.35;;;2.47;;
43813;SDS011;29669;55.706;37.656;2022-08-01T14:56:53;4.30;;;2.40;;
43813;SDS011;29669;55.706;37.656;2022-08-01T15:00:14;5.18;;;2.97;;
43813;SDS011;29669;55.706;37.656;2022-08-01T15:03:35;4.75;;;2.80;;
43813;SDS011;29669;55.706;37.656;2022-08-01T15:06:56;3.80;;;2.40;;
43813;SDS011;29669;55.706;37.656;2022-08-01T15:10:17;4.80;;;2.50;;
43813;SDS011;29669;55.706;37.656;2022-08-01T15:13:38;3.33;;;2.05;;
43813;SDS011;29669;55.706;37.656;2022-08-01T15:16:59;5.40;;;2.88;;
43813;SDS011;29669;55.706;37.656;2022-08-01T15:20:22;5.50;;;2.90;;
43813;SDS011;29669;55.706;37.656;2022-08-01T15:23:43;4.45;;;2.92;;
43813;SDS011;29669;55.706;37.656;2022-08-01T15:27:04;8.18;;;3.20;;
43813;SDS011;29669;55.706;37.656;2022-08-01T15:30:26;7.47;;;2.80;;
43813;SDS011;29669;55.706;37.656;2022-08-01T15:33:48;10.10;;;3.55;;
43813;SDS011;29669;55.706;37.656;2022-08-01T15:37:02;9.60;;;2.97;;
43813;SDS011;29669;55.706;37.656;2022-08-01T15:40:24;3.35;;;2.78;;
43813;SDS011;29669;55.706;37.656;2022-08-01T15:43:48;5.75;;;3.00;;
43813;SDS011;29669;55.706;37.656;2022-08-01T15:47:10;12.77;;;3.13;;
43813;SDS011;29669;55.706;37.656;2022-08-01T15:50:31;3.95;;;2.42;;
43813;SDS011;29669;55.706;37.656;2022-08-01T15:53:52;3.95;;;2.92;;
43813;SDS011;29669;55.706;37.656;2022-08-01T15:57:20;6.90;;;3.13;;
43813;SDS011;29669;55.706;37.656;2022-08-01T16:00:41;4.40;;;3.08;;
43813;SDS011;29669;55.706;37.656;2022-08-01T16:04:02;6.07;;;3.08;;
43813;SDS011;29669;55.706;37.656;2022-08-01T16:07:24;6.82;;;2.67;;
43813;SDS011;29669;55.706;37.656;2022-08-01T16:11:05;6.30;;;2.50;;
43813;SDS011;29669;55.706;37.656;2022-08-01T16:14:29;4.05;;;2.55;;
43813;SDS011;29669;55.706;37.656;2022-08-01T16:17:50;3.33;;;2.47;;
43813;SDS011;29669;55.706;37.656;2022-08-01T16:21:11;6.13;;;2.58;;
43813;SDS011;29669;55.706;37.656;2022-08-01T16:24:33;9.90;;;2.60;;
43813;SDS011;29669;55.706;37.656;2022-08-01T16:27:56;4.43;;;2.30;;
43813;SDS011;29669;55.706;37.656;2022-08-01T16:31:17;4.32;;;2.40;;
43813;SDS011;29669;55.706;37.656;2022-08-01T16:34:59;3.85;;;2.42;;
43813;SDS011;29669;55.706;37.656;2022-08-01T16:38:23;4.68;;;2.60;;
43813;SDS011;29669;55.706;37.656;2022-08-01T16:41:47;8.18;;;3.38;;
43813;SDS011;29669;55.706;37.656;2022-08-01T16:45:10;3.13;;;2.40;;
43813;SDS011;29669;55.706;37.656;2022-08-01T16:48:33;10.25;;;2.65;;
43813;SDS011;29669;55.706;37.656;2022-08-01T16:51:58;4.80;;;3.22;;
43813;SDS011;29669;55.706;37.656;2022-08-01T16:55:12;6.65;;;2.92;;
43813;SDS011;29669;55.706;37.656;2022-08-01T16:58:56;2.95;;;2.42;;
43813;SDS011;29669;55.706;37.656;2022-08-01T17:02:20;7.53;;;3.60;;
43813;SDS011;29669;55.706;37.656;2022-08-01T17:05:41;6.22;;;2.72;;
43813;SDS011;29669;55.706;37.656;2022-08-01T17:09:02;4.45;;;2.70;;
43813;SDS011;29669;55.706;37.656;2022-08-01T17:12:28;6.90;;;4.13;;
43813;SDS011;29669;55.706;37.656;2022-08-01T17:15:49;6.55;;;3.30;;
43813;SDS011;29669;55.706;37.656;2022-08-01T17:19:12;5.28;;;2.97;;
43813;SDS011;29669;55.706;37.656;2022-08-01T17:26:02;6.63;;;3.50;;
43813;SDS011;29669;55.706;37.656;2022-08-01T17:29:24;7.00;;;3.40;;
43813;SDS011;29669;55.706;37.656;2022-08-01T17:32:50;8.27;;;4.00;;
43813;SDS011;29669;55.706;37.656;2022-08-01T17:36:06;10.07;;;3.22;;
43813;SDS011;29669;55.706;37.656;2022-08-01T17:39:28;6.45;;;3.40;;
43813;SDS011;29669;55.706;37.656;2022-08-01T17:42:45;7.95;;;4.22;;
43813;SDS011;29669;55.706;37.656;2022-08-01T17:46:08;6.03;;;3.38;;
43813;SDS011;29669;55.706;37.656;2022-08-01T17:49:30;14.32;;;4.28;;
43813;SDS011;29669;55.706;37.656;2022-08-01T17:53:00;19.52;;;4.60;;
43813;SDS011;29669;55.706;37.656;2022-08-01T17:56:21;5.55;;;4.15;;
43813;SDS011;29669;55.706;37.656;2022-08-01T17:59:35;7.00;;;3.67;;
43813;SDS011;29669;55.706;37.656;2022-08-01T18:02:59;46.55;;;8.23;;
43813;SDS011;29669;55.706;37.656;2022-08-01T18:06:24;15.15;;;4.30;;
43813;SDS011;29669;55.706;37.656;2022-08-01T18:09:46;12.43;;;4.00;;
43813;SDS011;29669;55.706;37.656;2022-08-01T18:13:10;6.90;;;3.40;;
43813;SDS011;29669;55.706;37.656;2022-08-01T18:16:31;8.20;;;4.07;;
43813;SDS011;29669;55.706;37.656;2022-08-01T18:19:52;6.82;;;3.90;;
43813;SDS011;29669;55.706;37.656;2022-08-01T18:23:13;18.15;;;4.85;;
43813;SDS011;29669;55.706;37.656;2022-08-01T18:26:34;8.40;;;4.65;;
43813;SDS011;29669;55.706;37.656;2022-08-01T18:29:58;12.32;;;6.25;;
43813;SDS011;29669;55.706;37.656;2022-08-01T18:33:20;13.13;;;3.97;;
43813;SDS011;29669;55.706;37.656;2022-08-01T18:36:44;10.70;;;4.40;;
43813;SDS011;29669;55.706;37.656;2022-08-01T18:40:05;13.57;;;4.60;;
43813;SDS011;29669;55.706;37.656;2022-08-01T18:43:29;12.07;;;5.25;;
43813;SDS011;29669;55.706;37.656;2022-08-01T18:46:54;8.63;;;4.50;;
43813;SDS011;29669;55.706;37.656;2022-08-01T18:50:16;9.55;;;5.18;;
43813;SDS011;29669;55.706;37.656;2022-08-01T18:53:38;10.63;;;4.63;;
43813;SDS011;29669;55.706;37.656;2022-08-01T18:56:59;9.65;;;4.57;;
43813;SDS011;29669;55.706;37.656;2022-08-01T19:00:30;9.48;;;4.45;;
43813;SDS011;29669;55.706;37.656;2022-08-01T19:03:56;11.85;;;4.38;;
43813;SDS011;29669;55.706;37.656;2022-08-01T19:07:17;11.20;;;4.22;;
43813;SDS011;29669;55.706;37.656;2022-08-01T19:23:59;9.43;;;4.53;;
43813;SDS011;29669;55.706;37.656;2022-08-01T19:27:35;8.07;;;3.88;;
43813;SDS011;29669;55.706;37.656;2022-08-01T19:31:04;11.55;;;4.40;;
43813;SDS011;29669;55.706;37.656;2022-08-01T19:34:28;10.40;;;5.28;;
43813;SDS011;29669;55.706;37.656;2022-08-01T19:37:49;13.00;;;5.40;;
43813;SDS011;29669;55.706;37.656;2022-08-01T19:41:10;10.68;;;5.30;;
43813;SDS011;29669;55.706;37.656;2022-08-01T19:44:31;18.65;;;6.13;;
43813;SDS011;29669;55.706;37.656;2022-08-01T19:47:52;15.10;;;5.88;;
43813;SDS011;29669;55.706;37.656;2022-08-01T19:51:15;10.45;;;5.00;;
43813;SDS011;29669;55.706;37.656;2022-08-01T19:54:40;16.45;;;6.07;;
43813;SDS011;29669;55.706;37.656;2022-08-01T19:58:03;14.13;;;5.40;;
43813;SDS011;29669;55.706;37.656;2022-08-01T20:01:34;9.65;;;5.78;;
43813;SDS011;29669;55.706;37.656;2022-08-01T20:04:56;14.57;;;6.03;;
43813;SDS011;29669;55.706;37.656;2022-08-01T20:08:18;17.77;;;5.72;;
43813;SDS011;29669;55.706;37.656;2022-08-01T20:11:42;23.63;;;6.18;;
43813;SDS011;29669;55.706;37.656;2022-08-01T20:15:07;30.02;;;5.60;;
43813;SDS011;29669;55.706;37.656;2022-08-01T20:18:29;13.15;;;5.65;;
43813;SDS011;29669;55.706;37.656;2022-08-01T20:21:54;22.00;;;5.70;;
43813;SDS011;29669;55.706;37.656;2022-08-01T20:25:20;20.58;;;5.47;;
43813;SDS011;29669;55.706;37.656;2022-08-01T20:28:46;14.45;;;5.10;;
43813;SDS011;29669;55.706;37.656;2022-08-01T20:32:08;19.15;;;6.78;;
43813;SDS011;29669;55.706;37.656;2022-08-01T20:35:29;14.85;;;5.38;;
43813;SDS011;29669;55.706;37.656;2022-08-01T20:38:59;11.00;;;5.15;;
43813;SDS011;29669;55.706;37.656;2022-08-01T20:42:21;24.58;;;6.65;;
43813;SDS011;29669;55.706;37.656;2022-08-01T20:45:49;18.15;;;6.00;;
43813;SDS011;29669;55.706;37.656;2022-08-01T20:49:10;18.27;;;5.43;;
43813;SDS011;29669;55.706;37.656;2022-08-01T20:52:31;21.88;;;6.07;;
43813;SDS011;29669;55.706;37.656;2022-08-01T20:55:59;25.05;;;6.13;;
43813;SDS011;29669;55.706;37.656;2022-08-01T21:03:07;10.65;;;5.00;;